^^
Station Historical Data
Daily Summary for January 15, 2019 Units:  English    Metric   Both
« Previous Day
Next Day »
Daily Weekly Monthly Yearly Custom
  High: Low: Average:
Temperature: 26.5 °F 6.3 °F 18.7 °F
Dew Point: 23.2 °F 2.2 °F 15.8 °F
Humidity: 93% 82% 88%
Wind Speed: 25.0mph 0.0mph 8.8mph
Wind Gust: 26.0mph - -
Wind- - SSW
Pressure: 30.31 in 29.95 in -
Precipitation: 0.00 in    
Historical Graphs
 
 
Tabular Data for January 15, 2019
Time Temperature Dew Point Pressure Wind Wind Speed Wind Gust Humidity Rainfall Rate (Hourly) solar Conditions
00:04 18.0 °F 16.1 °F 30.07 in SE 2.0 mph 4.0 mph 92% 0.00 in 0.00 W/m2
00:09 18.0 °F 16.1 °F 30.06 in SE 5.0 mph 5.0 mph 92% 0.00 in 0.00 W/m2
00:14 17.9 °F 16.0 °F 30.05 in SE 4.0 mph 6.0 mph 92% 0.00 in 0.00 W/m2
00:19 17.9 °F 16.0 °F 30.06 in Calm   6.0 mph 92% 0.00 in 0.00 W/m2
00:24 18.0 °F 16.1 °F 30.06 in SSE 1.0 mph 5.0 mph 92% 0.00 in 0.00 W/m2
00:29 18.1 °F 16.2 °F 30.06 in SSE 2.0 mph 2.0 mph 92% 0.00 in 0.00 W/m2
00:34 18.1 °F 16.2 °F 30.05 in SE 2.0 mph 4.0 mph 92% 0.00 in 0.00 W/m2
00:39 17.9 °F 16.0 °F 30.05 in SE 3.0 mph 5.0 mph 92% 0.00 in 0.00 W/m2
00:44 17.8 °F 15.9 °F 30.04 in SE 5.0 mph 5.0 mph 92% 0.00 in 0.00 W/m2
00:49 17.7 °F 15.8 °F 30.04 in East 6.0 mph 7.0 mph 92% 0.00 in 0.00 W/m2
00:54 17.7 °F 15.8 °F 30.04 in East 5.0 mph 7.0 mph 92% 0.00 in 0.00 W/m2
00:59 17.8 °F 15.9 °F 30.04 in ESE 4.0 mph 7.0 mph 92% 0.00 in 0.00 W/m2
01:04 17.9 °F 16.0 °F 30.03 in SSE 5.0 mph 7.0 mph 92% 0.00 in 0.00 W/m2
01:09 17.7 °F 15.8 °F 30.03 in SSE 4.0 mph 7.0 mph 92% 0.00 in 0.00 W/m2
01:14 17.4 °F 15.5 °F 30.03 in SSE 4.0 mph 7.0 mph 92% 0.00 in 0.00 W/m2
01:19 17.4 °F 15.5 °F 30.03 in SE 2.0 mph 6.0 mph 92% 0.00 in 0.00 W/m2
01:24 17.0 °F 15.1 °F 30.03 in SE 1.0 mph 4.0 mph 92% 0.00 in 0.00 W/m2
01:29 16.4 °F 14.2 °F 30.03 in SE 1.0 mph 3.0 mph 91% 0.00 in 0.00 W/m2
01:34 15.8 °F 13.6 °F 30.02 in SE 2.0 mph 4.0 mph 91% 0.00 in 0.00 W/m2
01:39 15.3 °F 13.1 °F 30.02 in SE 3.0 mph 4.0 mph 91% 0.00 in 0.00 W/m2
01:44 15.2 °F 13.0 °F 30.02 in East 5.0 mph 5.0 mph 91% 0.00 in 0.00 W/m2
01:49 15.0 °F 12.8 °F 30.02 in ESE 3.0 mph 6.0 mph 91% 0.00 in 0.00 W/m2
01:54 15.0 °F 13.1 °F 30.02 in ESE 4.0 mph 6.0 mph 92% 0.00 in 0.00 W/m2
01:59 15.2 °F 13.3 °F 30.01 in ESE 3.0 mph 5.0 mph 92% 0.00 in 0.00 W/m2
02:04 15.5 °F 13.6 °F 30.01 in East 6.0 mph 6.0 mph 92% 0.00 in 0.00 W/m2
02:09 15.9 °F 14.0 °F 30.01 in East 5.0 mph 6.0 mph 92% 0.00 in 0.00 W/m2
02:14 15.9 °F 14.0 °F 30.00 in SE 4.0 mph 7.0 mph 92% 0.00 in 0.00 W/m2
02:19 15.8 °F 13.9 °F 30.00 in SSE 4.0 mph 7.0 mph 92% 0.00 in 0.00 W/m2
02:24 15.5 °F 13.3 °F 30.00 in SSE 4.0 mph 6.0 mph 91% 0.00 in 0.00 W/m2
02:29 15.3 °F 13.1 °F 30.00 in SSE 5.0 mph 6.0 mph 91% 0.00 in 0.00 W/m2
02:34 15.5 °F 13.6 °F 30.00 in SSE 3.0 mph 6.0 mph 92% 0.00 in 0.00 W/m2
02:39 16.0 °F 14.1 °F 30.00 in SSE 5.0 mph 6.0 mph 92% 0.00 in 0.00 W/m2
02:44 16.4 °F 14.5 °F 30.00 in SSE 6.0 mph 7.0 mph 92% 0.00 in 0.00 W/m2
02:49 16.7 °F 14.8 °F 30.00 in South 2.0 mph 7.0 mph 92% 0.00 in 0.00 W/m2
02:54 16.8 °F 14.9 °F 30.00 in South 2.0 mph 5.0 mph 92% 0.00 in 0.00 W/m2
02:59 16.8 °F 14.9 °F 30.00 in South 3.0 mph 4.0 mph 92% 0.00 in 0.00 W/m2
03:04 16.6 °F 14.7 °F 30.00 in South 3.0 mph 5.0 mph 92% 0.00 in 0.00 W/m2
03:09 16.6 °F 14.7 °F 29.99 in South 2.0 mph 5.0 mph 92% 0.00 in 0.00 W/m2
03:14 16.7 °F 14.8 °F 29.99 in South 2.0 mph 5.0 mph 92% 0.00 in 0.00 W/m2
03:19 16.8 °F 14.9 °F 29.99 in South 2.0 mph 5.0 mph 92% 0.00 in 0.00 W/m2
03:24 16.8 °F 14.9 °F 29.98 in South 3.0 mph 5.0 mph 92% 0.00 in 0.00 W/m2
03:29 16.9 °F 15.0 °F 29.98 in SSE 3.0 mph 5.0 mph 92% 0.00 in 0.00 W/m2
03:34 16.8 °F 14.9 °F 29.98 in SSE 2.0 mph 5.0 mph 92% 0.00 in 0.00 W/m2
03:39 16.8 °F 14.9 °F 29.98 in SSE 3.0 mph 5.0 mph 92% 0.00 in 0.00 W/m2
03:44 16.7 °F 14.8 °F 29.98 in SSE 1.0 mph 5.0 mph 92% 0.00 in 0.00 W/m2
03:49 16.4 °F 14.2 °F 29.98 in SSE 1.0 mph 5.0 mph 91% 0.00 in 0.00 W/m2
03:54 16.3 °F 14.1 °F 29.98 in SSE 3.0 mph 3.0 mph 91% 0.00 in 0.00 W/m2
03:59 16.2 °F 14.3 °F 29.97 in South 5.0 mph 6.0 mph 92% 0.00 in 0.00 W/m2
04:04 16.3 °F 14.4 °F 29.97 in South 3.0 mph 6.0 mph 92% 0.00 in 0.00 W/m2
04:09 16.4 °F 14.5 °F 29.97 in SSW 4.0 mph 6.0 mph 92% 0.00 in 0.00 W/m2
04:14 16.4 °F 14.5 °F 29.97 in SSW 3.0 mph 6.0 mph 92% 0.00 in 0.00 W/m2
04:19 16.5 °F 14.6 °F 29.97 in SSW 2.0 mph 6.0 mph 92% 0.00 in 0.00 W/m2
04:24 16.6 °F 14.7 °F 29.97 in SSW 2.0 mph 3.0 mph 92% 0.00 in 0.00 W/m2
04:29 16.6 °F 14.7 °F 29.96 in SSW 3.0 mph 5.0 mph 92% 0.00 in 0.00 W/m2
04:34 16.9 °F 15.0 °F 29.96 in SSW 4.0 mph 5.0 mph 92% 0.00 in 0.00 W/m2
04:39 17.2 °F 15.3 °F 29.96 in SSW 3.0 mph 5.0 mph 92% 0.00 in 0.00 W/m2
04:44 17.3 °F 15.4 °F 29.96 in SSW 2.0 mph 4.0 mph 92% 0.00 in 0.00 W/m2
04:49 17.3 °F 15.4 °F 29.96 in SSW 2.0 mph 5.0 mph 92% 0.00 in 0.00 W/m2
04:54 17.3 °F 15.4 °F 29.96 in SSW 4.0 mph 5.0 mph 92% 0.00 in 0.00 W/m2
04:59 17.3 °F 15.4 °F 29.96 in SSW 2.0 mph 5.0 mph 92% 0.00 in 0.00 W/m2
05:04 17.4 °F 15.5 °F 29.96 in SSW 4.0 mph 6.0 mph 92% 0.00 in 0.00 W/m2
05:09 17.5 °F 15.6 °F 29.96 in SSW 3.0 mph 6.0 mph 92% 0.00 in 0.00 W/m2
05:14 17.4 °F 15.5 °F 29.96 in SSW 3.0 mph 5.0 mph 92% 0.00 in 0.00 W/m2
05:19 17.3 °F 15.4 °F 29.96 in SSW 4.0 mph 5.0 mph 92% 0.00 in 0.00 W/m2
05:24 17.0 °F 15.1 °F 29.96 in SSW 2.0 mph 5.0 mph 92% 0.00 in 0.00 W/m2
05:29 16.9 °F 15.0 °F 29.96 in SSW 2.0 mph 5.0 mph 92% 0.00 in 0.00 W/m2
05:34 16.7 °F 14.8 °F 29.95 in SSW 3.0 mph 4.0 mph 92% 0.00 in 0.00 W/m2
05:39 16.6 °F 14.7 °F 29.95 in SSW 3.0 mph 4.0 mph 92% 0.00 in 0.00 W/m2
05:44 16.4 °F 14.5 °F 29.95 in SSW 3.0 mph 5.0 mph 92% 0.00 in 0.00 W/m2
05:49 16.2 °F 14.3 °F 29.95 in SSW 3.0 mph 5.0 mph 92% 0.00 in 0.00 W/m2
05:54 15.9 °F 13.7 °F 29.95 in SSW 2.0 mph 5.0 mph 91% 0.00 in 0.00 W/m2
05:59 15.9 °F 14.0 °F 29.95 in SSW 2.0 mph 4.0 mph 92% 0.00 in 0.00 W/m2
06:04 16.1 °F 14.2 °F 29.95 in SSW 3.0 mph 5.0 mph 92% 0.00 in 0.00 W/m2
06:09 16.1 °F 14.2 °F 29.96 in SSW 4.0 mph 6.0 mph 92% 0.00 in 0.00 W/m2
06:14 16.1 °F 14.2 °F 29.95 in SSW 3.0 mph 6.0 mph 92% 0.00 in 0.00 W/m2
06:19 16.0 °F 14.1 °F 29.95 in SSW 5.0 mph 5.0 mph 92% 0.00 in 0.00 W/m2
06:24 16.0 °F 14.1 °F 29.96 in SSW 4.0 mph 5.0 mph 92% 0.00 in 0.00 W/m2
06:29 16.1 °F 14.2 °F 29.96 in SSW 3.0 mph 5.0 mph 92% 0.00 in 0.00 W/m2
06:34 16.6 °F 14.7 °F 29.96 in SSW 5.0 mph 5.0 mph 92% 0.00 in 0.00 W/m2
06:39 16.7 °F 14.8 °F 29.96 in SSW 3.0 mph 5.0 mph 92% 0.00 in 0.00 W/m2
06:44 16.9 °F 15.0 °F 29.96 in SSW 3.0 mph 6.0 mph 92% 0.00 in 0.00 W/m2
06:49 16.7 °F 14.8 °F 29.96 in SSW 4.0 mph 6.0 mph 92% 0.00 in 0.00 W/m2
06:54 16.7 °F 14.8 °F 29.96 in SSW 4.0 mph 5.0 mph 92% 0.00 in 0.00 W/m2
06:59 16.9 °F 15.0 °F 29.96 in SSW 4.0 mph 5.0 mph 92% 0.00 in 0.00 W/m2
07:04 17.0 °F 15.1 °F 29.96 in SSW 4.0 mph 5.0 mph 92% 0.00 in 0.00 W/m2
07:09 17.2 °F 15.3 °F 29.96 in SSW 2.0 mph 5.0 mph 92% 0.00 in 0.00 W/m2
07:14 17.0 °F 14.8 °F 29.97 in SSW 2.0 mph 4.0 mph 91% 0.00 in 0.00 W/m2
07:19 16.7 °F 14.5 °F 29.96 in SSW 3.0 mph 4.0 mph 91% 0.00 in 0.00 W/m2
07:24 16.8 °F 14.9 °F 29.97 in SSW 4.0 mph 5.0 mph 92% 0.00 in 0.00 W/m2
07:29 17.2 °F 15.3 °F 29.97 in SSW 3.0 mph 5.0 mph 92% 0.00 in 0.00 W/m2
07:34 17.5 °F 15.6 °F 29.97 in WNW 4.0 mph 6.0 mph 92% 0.00 in 0.00 W/m2
07:39 17.8 °F 15.9 °F 29.97 in NW 3.0 mph 6.0 mph 92% 0.00 in 0.00 W/m2
07:44 17.5 °F 15.3 °F 29.98 in NW 3.0 mph 5.0 mph 91% 0.00 in 0.00 W/m2
07:49 17.5 °F 15.6 °F 29.98 in WNW 4.0 mph 5.0 mph 92% 0.00 in 0.00 W/m2
07:54 17.9 °F 16.0 °F 29.99 in NW 5.0 mph 6.0 mph 92% 0.00 in 0.00 W/m2
07:59 18.4 °F 16.5 °F 29.99 in NW 5.0 mph 6.0 mph 92% 0.00 in 0.00 W/m2
08:04 18.2 °F 16.3 °F 30.00 in NW 5.0 mph 6.0 mph 92% 0.00 in 0.00 W/m2
08:09 18.9 °F 17.0 °F 30.00 in NW 5.0 mph 6.0 mph 92% 0.00 in 0.00 W/m2
08:14 19.8 °F 17.9 °F 29.99 in NW 6.0 mph 9.0 mph 92% 0.00 in 0.00 W/m2
08:19 20.7 °F 18.7 °F 30.00 in WNW 10.0 mph 10.0 mph 92% 0.00 in 0.00 W/m2
08:24 21.6 °F 19.6 °F 30.00 in WNW 10.0 mph 10.0 mph 92% 0.00 in 5.00 W/m2
08:29 22.4 °F 20.4 °F 30.00 in WNW 10.0 mph 10.0 mph 92% 0.00 in 7.00 W/m2
08:34 22.8 °F 20.6 °F 30.01 in WNW 10.0 mph 10.0 mph 91% 0.00 in 9.00 W/m2
08:39 22.6 °F 20.1 °F 30.01 in NW 8.0 mph 10.0 mph 90% 0.00 in 12.00 W/m2
08:44 22.1 °F 19.6 °F 30.02 in NNW 9.0 mph 11.0 mph 90% 0.00 in 18.00 W/m2
08:49 22.4 °F 19.9 °F 30.02 in NW 6.0 mph 13.0 mph 90% 0.00 in 37.00 W/m2
08:54 23.0 °F 20.5 °F 30.02 in NW 9.0 mph 14.0 mph 90% 0.00 in 39.00 W/m2
08:59 23.2 °F 20.7 °F 30.02 in NNW 8.0 mph 15.0 mph 90% 0.00 in 51.00 W/m2
09:04 23.3 °F 20.8 °F 30.02 in NW 12.0 mph 15.0 mph 90% 0.00 in 42.00 W/m2
09:09 23.5 °F 21.0 °F 30.02 in NW 13.0 mph 16.0 mph 90% 0.00 in 51.00 W/m2
09:14 23.5 °F 21.0 °F 30.03 in NW 11.0 mph 16.0 mph 90% 0.00 in 42.00 W/m2
09:19 23.4 °F 20.9 °F 30.03 in NNW 11.0 mph 15.0 mph 90% 0.00 in 46.00 W/m2
09:24 23.3 °F 20.8 °F 30.03 in NNW 11.0 mph 16.0 mph 90% 0.00 in 47.00 W/m2
09:29 23.4 °F 20.9 °F 30.04 in NW 14.0 mph 17.0 mph 90% 0.00 in 47.00 W/m2
09:34 23.4 °F 20.9 °F 30.04 in NNW 14.0 mph 18.0 mph 90% 0.00 in 51.00 W/m2
09:39 23.6 °F 21.4 °F 30.04 in NNW 14.0 mph 18.0 mph 91% 0.00 in 58.00 W/m2
09:44 23.9 °F 21.7 °F 30.04 in NW 16.0 mph 20.0 mph 91% 0.00 in 65.00 W/m2
09:49 24.1 °F 22.1 °F 30.04 in NNW 15.0 mph 20.0 mph 92% 0.00 in 67.00 W/m2
09:54 24.2 °F 22.2 °F 30.04 in NW 16.0 mph 21.0 mph 92% 0.00 in 67.00 W/m2
09:59 24.3 °F 22.3 °F 30.04 in NW 10.0 mph 21.0 mph 92% 0.00 in 63.00 W/m2
10:04 24.4 °F 22.4 °F 30.05 in NNW 12.0 mph 21.0 mph 92% 0.00 in 70.00 W/m2
10:09 24.6 °F 22.6 °F 30.05 in NW 16.0 mph 24.0 mph 92% 0.00 in 79.00 W/m2
10:14 24.8 °F 23.1 °F 30.05 in NNW 13.0 mph 24.0 mph 93% 0.00 in 74.00 W/m2
10:19 24.8 °F 22.8 °F 30.06 in NW 16.0 mph 22.0 mph 92% 0.00 in 69.00 W/m2
10:24 24.8 °F 22.8 °F 30.06 in NW 14.0 mph 18.0 mph 92% 0.00 in 65.00 W/m2
10:29 24.8 °F 22.8 °F 30.07 in NW 19.0 mph 23.0 mph 92% 0.00 in 69.00 W/m2
10:34 24.9 °F 22.9 °F 30.07 in NW 14.0 mph 23.0 mph 92% 0.00 in 65.00 W/m2
10:39 25.0 °F 23.0 °F 30.07 in NNW 14.0 mph 23.0 mph 92% 0.00 in 69.00 W/m2
10:44 25.0 °F 23.0 °F 30.07 in NNW 19.0 mph 23.0 mph 92% 0.00 in 74.00 W/m2
10:49 25.1 °F 23.1 °F 30.07 in NNW 20.0 mph 22.0 mph 92% 0.00 in 83.00 W/m2
10:54 25.2 °F 23.2 °F 30.08 in NNW 20.0 mph 23.0 mph 92% 0.00 in 79.00 W/m2
10:59 25.3 °F 23.0 °F 30.08 in NW 16.0 mph 26.0 mph 91% 0.00 in 83.00 W/m2
11:04 25.3 °F 23.0 °F 30.08 in NNW 25.0 mph 26.0 mph 91% 0.00 in 90.00 W/m2
11:09 25.4 °F 23.1 °F 30.09 in NW 17.0 mph 26.0 mph 91% 0.00 in 86.00 W/m2
11:14 25.4 °F 22.9 °F 30.09 in NW 16.0 mph 25.0 mph 90% 0.00 in 74.00 W/m2
11:19 25.4 °F 22.9 °F 30.09 in NW 11.0 mph 23.0 mph 90% 0.00 in 69.00 W/m2
11:24 25.3 °F 22.8 °F 30.09 in NNW 20.0 mph 22.0 mph 90% 0.00 in 76.00 W/m2
11:29 25.2 °F 22.7 °F 30.10 in NNW 12.0 mph 22.0 mph 90% 0.00 in 81.00 W/m2
11:34 25.3 °F 22.8 °F 30.10 in NNW 16.0 mph 24.0 mph 90% 0.00 in 77.00 W/m2
11:39 25.3 °F 22.5 °F 30.11 in WNW 16.0 mph 24.0 mph 89% 0.00 in 79.00 W/m2
11:44 25.3 °F 22.5 °F 30.11 in NNW 13.0 mph 22.0 mph 89% 0.00 in 76.00 W/m2
11:49 25.3 °F 22.8 °F 30.11 in NNW 14.0 mph 20.0 mph 90% 0.00 in 86.00 W/m2
11:54 25.3 °F 22.5 °F 30.11 in NNW 18.0 mph 25.0 mph 89% 0.00 in 90.00 W/m2
11:59 25.4 °F 22.6 °F 30.11 in NNW 17.0 mph 26.0 mph 89% 0.00 in 95.00 W/m2
12:04 25.5 °F 22.7 °F 30.11 in NW 16.0 mph 26.0 mph 89% 0.00 in 98.00 W/m2
12:09 25.5 °F 22.7 °F 30.11 in NNW 15.0 mph 21.0 mph 89% 0.00 in 97.00 W/m2
12:14 25.6 °F 22.8 °F 30.11 in NNW 15.0 mph 22.0 mph 89% 0.00 in 95.00 W/m2
12:19 25.7 °F 22.6 °F 30.11 in NNW 18.0 mph 22.0 mph 88% 0.00 in 93.00 W/m2
12:24 25.7 °F 22.6 °F 30.11 in NW 13.0 mph 20.0 mph 88% 0.00 in 95.00 W/m2
12:29 25.7 °F 22.6 °F 30.11 in NNW 14.0 mph 24.0 mph 88% 0.00 in 95.00 W/m2
12:34 25.8 °F 22.7 °F 30.11 in NW 20.0 mph 25.0 mph 88% 0.00 in 102.00 W/m2
12:39 25.9 °F 22.6 °F 30.11 in NW 20.0 mph 26.0 mph 87% 0.00 in 93.00 W/m2
12:44 25.9 °F 22.6 °F 30.11 in NNW 16.0 mph 26.0 mph 87% 0.00 in 84.00 W/m2
12:49 26.0 °F 22.7 °F 30.11 in NNW 12.0 mph 22.0 mph 87% 0.00 in 79.00 W/m2
12:54 26.0 °F 22.7 °F 30.11 in North 13.0 mph 20.0 mph 87% 0.00 in 86.00 W/m2
12:59 26.0 °F 22.7 °F 30.11 in NNW 14.0 mph 17.0 mph 87% 0.00 in 95.00 W/m2
13:04 26.0 °F 22.7 °F 30.11 in NW 19.0 mph 21.0 mph 87% 0.00 in 107.00 W/m2
13:09 26.1 °F 22.5 °F 30.11 in NNW 17.0 mph 21.0 mph 86% 0.00 in 102.00 W/m2
13:14 26.2 °F 22.6 °F 30.11 in NW 10.0 mph 22.0 mph 86% 0.00 in 90.00 W/m2
13:19 26.2 °F 22.6 °F 30.12 in NW 14.0 mph 22.0 mph 86% 0.00 in 77.00 W/m2
13:24 26.2 °F 22.6 °F 30.13 in NNW 15.0 mph 20.0 mph 86% 0.00 in 79.00 W/m2
13:29 26.2 °F 22.6 °F 30.13 in NW 10.0 mph 18.0 mph 86% 0.00 in 83.00 W/m2
13:34 26.3 °F 22.7 °F 30.13 in NW 10.0 mph 19.0 mph 86% 0.00 in 90.00 W/m2
13:39 26.3 °F 22.7 °F 30.12 in NW 12.0 mph 19.0 mph 86% 0.00 in 86.00 W/m2
13:44 26.3 °F 22.7 °F 30.13 in NW 16.0 mph 18.0 mph 86% 0.00 in 88.00 W/m2
13:49 26.3 °F 22.7 °F 30.13 in NW 14.0 mph 22.0 mph 86% 0.00 in 91.00 W/m2
13:54 26.4 °F 22.5 °F 30.13 in NW 13.0 mph 22.0 mph 85% 0.00 in 91.00 W/m2
13:59 26.5 °F 22.6 °F 30.13 in NNW 11.0 mph 20.0 mph 85% 0.00 in 86.00 W/m2
14:04 26.5 °F 22.3 °F 30.13 in NW 14.0 mph 20.0 mph 84% 0.00 in 90.00 W/m2
14:09 26.5 °F 22.3 °F 30.13 in NW 14.0 mph 18.0 mph 84% 0.00 in 90.00 W/m2
14:14 26.5 °F 22.3 °F 30.13 in NW 19.0 mph 22.0 mph 84% 0.00 in 93.00 W/m2
14:19 26.5 °F 22.3 °F 30.13 in NW 19.0 mph 22.0 mph 84% 0.00 in 79.00 W/m2
14:24 26.5 °F 22.3 °F 30.13 in NW 8.0 mph 20.0 mph 84% 0.00 in 76.00 W/m2
14:29 26.5 °F 22.3 °F 30.13 in NNW 14.0 mph 17.0 mph 84% 0.00 in 70.00 W/m2
14:34 26.5 °F 22.3 °F 30.14 in NW 11.0 mph 18.0 mph 84% 0.00 in 60.00 W/m2
14:39 26.4 °F 22.5 °F 30.14 in NW 14.0 mph 19.0 mph 85% 0.00 in 58.00 W/m2
14:44 26.2 °F 22.3 °F 30.14 in NNW 16.0 mph 20.0 mph 85% 0.00 in 56.00 W/m2
14:49 26.0 °F 22.1 °F 30.15 in NNW 13.0 mph 20.0 mph 85% 0.00 in 54.00 W/m2
14:54 25.9 °F 22.0 °F 30.15 in NW 13.0 mph 18.0 mph 85% 0.00 in 67.00 W/m2
14:59 25.7 °F 21.5 °F 30.15 in NNW 15.0 mph 21.0 mph 84% 0.00 in 69.00 W/m2
15:04 25.6 °F 21.4 °F 30.15 in NNW 11.0 mph 21.0 mph 84% 0.00 in 65.00 W/m2
15:09 25.5 °F 21.3 °F 30.16 in NNW 14.0 mph 19.0 mph 84% 0.00 in 60.00 W/m2
15:14 25.4 °F 21.2 °F 30.16 in NNW 15.0 mph 19.0 mph 84% 0.00 in 56.00 W/m2
15:19 25.2 °F 21.0 °F 30.17 in NNW 8.0 mph 16.0 mph 84% 0.00 in 58.00 W/m2
15:24 25.2 °F 21.0 °F 30.17 in NNW 11.0 mph 17.0 mph 84% 0.00 in 53.00 W/m2
15:29 25.1 °F 20.9 °F 30.17 in NW 14.0 mph 17.0 mph 84% 0.00 in 51.00 W/m2
15:34 24.9 °F 20.8 °F 30.17 in North 12.0 mph 17.0 mph 84% 0.00 in 46.00 W/m2
15:39 24.4 °F 20.3 °F 30.18 in NNE 12.0 mph 19.0 mph 84% 0.00 in 47.00 W/m2
15:44 23.9 °F 20.0 °F 30.18 in North 11.0 mph 19.0 mph 85% 0.00 in 47.00 W/m2
15:49 23.5 °F 19.9 °F 30.18 in North 7.0 mph 18.0 mph 86% 0.00 in 46.00 W/m2
15:54 23.3 °F 19.7 °F 30.18 in NNE 13.0 mph 17.0 mph 86% 0.00 in 51.00 W/m2
15:59 22.9 °F 19.3 °F 30.19 in NNE 14.0 mph 19.0 mph 86% 0.00 in 44.00 W/m2
16:04 22.4 °F 18.8 °F 30.20 in North 13.0 mph 19.0 mph 86% 0.00 in 37.00 W/m2
16:09 22.0 °F 18.5 °F 30.20 in NNE 12.0 mph 16.0 mph 86% 0.00 in 35.00 W/m2
16:14 21.7 °F 18.2 °F 30.20 in NNE 16.0 mph 17.0 mph 86% 0.00 in 32.00 W/m2
16:19 21.3 °F 17.8 °F 30.20 in NNE 16.0 mph 19.0 mph 86% 0.00 in 30.00 W/m2
16:24 20.8 °F 17.3 °F 30.21 in North 13.0 mph 19.0 mph 86% 0.00 in 23.00 W/m2
16:29 20.6 °F 17.1 °F 30.21 in NNE 9.0 mph 19.0 mph 86% 0.00 in 26.00 W/m2
16:34 20.3 °F 16.8 °F 30.21 in NNE 15.0 mph 18.0 mph 86% 0.00 in 28.00 W/m2
16:39 20.1 °F 16.6 °F 30.21 in NNE 10.0 mph 18.0 mph 86% 0.00 in 19.00 W/m2
16:44 19.9 °F 16.4 °F 30.22 in North 10.0 mph 16.0 mph 86% 0.00 in 19.00 W/m2
16:49 19.8 °F 16.3 °F 30.21 in North 11.0 mph 16.0 mph 86% 0.00 in 16.00 W/m2
16:54 19.7 °F 16.2 °F 30.22 in NNW 10.0 mph 16.0 mph 86% 0.00 in 12.00 W/m2
16:59 19.6 °F 16.1 °F 30.22 in North 11.0 mph 14.0 mph 86% 0.00 in 11.00 W/m2
17:04 19.6 °F 16.1 °F 30.22 in North 8.0 mph 12.0 mph 86% 0.00 in 9.00 W/m2
17:09 19.6 °F 16.1 °F 30.22 in North 13.0 mph 13.0 mph 86% 0.00 in 5.00 W/m2
17:14 19.4 °F 15.9 °F 30.22 in North 9.0 mph 15.0 mph 86% 0.00 in 0.00 W/m2
17:19 19.1 °F 15.3 °F 30.23 in NNW 11.0 mph 15.0 mph 85% 0.00 in 0.00 W/m2
17:24 18.9 °F 14.9 °F 30.23 in NNW 8.0 mph 14.0 mph 84% 0.00 in 0.00 W/m2
17:29 18.8 °F 14.8 °F 30.23 in NNW 10.0 mph 14.0 mph 84% 0.00 in 0.00 W/m2
17:34 18.6 °F 14.6 °F 30.23 in North 10.0 mph 14.0 mph 84% 0.00 in 0.00 W/m2
17:39 18.4 °F 14.1 °F 30.23 in North 9.0 mph 14.0 mph 83% 0.00 in 0.00 W/m2
17:44 18.4 °F 14.4 °F 30.23 in North 8.0 mph 14.0 mph 84% 0.00 in 0.00 W/m2
17:49 18.3 °F 14.3 °F 30.23 in North 10.0 mph 11.0 mph 84% 0.00 in 0.00 W/m2
17:54 18.2 °F 14.2 °F 30.23 in NNW 6.0 mph 12.0 mph 84% 0.00 in 0.00 W/m2
17:59 18.2 °F 14.2 °F 30.24 in NNW 6.0 mph 13.0 mph 84% 0.00 in 0.00 W/m2
18:04 18.1 °F 13.8 °F 30.24 in North 7.0 mph 13.0 mph 83% 0.00 in 0.00 W/m2
18:09 18.0 °F 14.0 °F 30.24 in North 8.0 mph 11.0 mph 84% 0.00 in 0.00 W/m2
18:14 18.0 °F 14.0 °F 30.25 in NNE 9.0 mph 11.0 mph 84% 0.00 in 0.00 W/m2
18:19 17.9 °F 13.9 °F 30.24 in North 6.0 mph 10.0 mph 84% 0.00 in 0.00 W/m2
18:24 17.9 °F 13.9 °F 30.25 in North 7.0 mph 11.0 mph 84% 0.00 in 0.00 W/m2
18:29 17.8 °F 13.8 °F 30.25 in North 9.0 mph 13.0 mph 84% 0.00 in 0.00 W/m2
18:34 17.6 °F 13.6 °F 30.25 in North 10.0 mph 14.0 mph 84% 0.00 in 0.00 W/m2
18:39 17.6 °F 13.6 °F 30.25 in North 8.0 mph 14.0 mph 84% 0.00 in 0.00 W/m2
18:44 17.5 °F 13.5 °F 30.25 in North 10.0 mph 12.0 mph 84% 0.00 in 0.00 W/m2
18:49 17.4 °F 13.4 °F 30.25 in NNW 6.0 mph 12.0 mph 84% 0.00 in 0.00 W/m2
18:54 17.3 °F 13.3 °F 30.25 in North 6.0 mph 12.0 mph 84% 0.00 in 0.00 W/m2
18:59 17.1 °F 13.4 °F 30.25 in NNW 9.0 mph 13.0 mph 85% 0.00 in 0.00 W/m2
19:04 16.8 °F 13.1 °F 30.25 in NNW 8.0 mph 13.0 mph 85% 0.00 in 0.00 W/m2
19:09 16.5 °F 12.5 °F 30.26 in NNW 10.0 mph 13.0 mph 84% 0.00 in 0.00 W/m2
19:14 16.3 °F 12.6 °F 30.26 in NNW 10.0 mph 13.0 mph 85% 0.00 in 0.00 W/m2
19:19 16.2 °F 12.5 °F 30.26 in NNW 6.0 mph 12.0 mph 85% 0.00 in 0.00 W/m2
19:24 16.2 °F 12.5 °F 30.26 in North 8.0 mph 12.0 mph 85% 0.00 in 0.00 W/m2
19:29 16.1 °F 12.1 °F 30.26 in North 12.0 mph 12.0 mph 84% 0.00 in 0.00 W/m2
19:34 16.0 °F 12.3 °F 30.27 in North 5.0 mph 13.0 mph 85% 0.00 in 0.00 W/m2
19:39 15.9 °F 12.2 °F 30.27 in North 8.0 mph 13.0 mph 85% 0.00 in 0.00 W/m2
19:44 15.9 °F 11.9 °F 30.27 in NNE 9.0 mph 13.0 mph 84% 0.00 in 0.00 W/m2
19:49 15.7 °F 11.7 °F 30.27 in NNE 11.0 mph 17.0 mph 84% 0.00 in 0.00 W/m2
19:54 15.4 °F 11.2 °F 30.27 in North 11.0 mph 17.0 mph 83% 0.00 in 0.00 W/m2
19:59 15.1 °F 10.9 °F 30.27 in NNE 14.0 mph 16.0 mph 83% 0.00 in 0.00 W/m2
20:04 14.9 °F 10.9 °F 30.27 in NNE 12.0 mph 16.0 mph 84% 0.00 in 0.00 W/m2
20:09 14.7 °F 10.7 °F 30.27 in NNE 11.0 mph 15.0 mph 84% 0.00 in 0.00 W/m2
20:14 14.4 °F 10.4 °F 30.27 in NNE 13.0 mph 15.0 mph 84% 0.00 in 0.00 W/m2
20:19 14.1 °F 10.2 °F 30.28 in NNE 7.0 mph 15.0 mph 84% 0.00 in 0.00 W/m2
20:24 13.9 °F 10.0 °F 30.27 in NNE 9.0 mph 13.0 mph 84% 0.00 in 0.00 W/m2
20:29 13.7 °F 9.8 °F 30.27 in NE 9.0 mph 13.0 mph 84% 0.00 in 0.00 W/m2
20:34 13.5 °F 9.6 °F 30.27 in NNE 10.0 mph 14.0 mph 84% 0.00 in 0.00 W/m2
20:39 13.2 °F 9.3 °F 30.28 in NE 8.0 mph 14.0 mph 84% 0.00 in 0.00 W/m2
20:44 13.0 °F 9.1 °F 30.28 in NNE 9.0 mph 14.0 mph 84% 0.00 in 0.00 W/m2
20:49 12.7 °F 9.0 °F 30.28 in NE 6.0 mph 13.0 mph 85% 0.00 in 0.00 W/m2
20:54 12.5 °F 8.6 °F 30.28 in North 12.0 mph 15.0 mph 84% 0.00 in 0.00 W/m2
20:59 12.3 °F 8.4 °F 30.28 in NNE 10.0 mph 15.0 mph 84% 0.00 in 0.00 W/m2
21:04 12.1 °F 8.2 °F 30.28 in NE 8.0 mph 14.0 mph 84% 0.00 in 0.00 W/m2
21:09 11.9 °F 8.0 °F 30.28 in NE 8.0 mph 13.0 mph 84% 0.00 in 0.00 W/m2
21:14 11.8 °F 7.9 °F 30.28 in NE 10.0 mph 13.0 mph 84% 0.00 in 0.00 W/m2
21:19 11.7 °F 7.8 °F 30.28 in NNE 7.0 mph 13.0 mph 84% 0.00 in 0.00 W/m2
21:24 11.7 °F 7.8 °F 30.28 in NE 9.0 mph 13.0 mph 84% 0.00 in 0.00 W/m2
21:29 11.7 °F 7.8 °F 30.28 in NE 9.0 mph 12.0 mph 84% 0.00 in 0.00 W/m2
21:34 11.7 °F 7.8 °F 30.28 in NE 7.0 mph 13.0 mph 84% 0.00 in 0.00 W/m2
21:39 11.7 °F 8.1 °F 30.28 in NE 9.0 mph 13.0 mph 85% 0.00 in 0.00 W/m2
21:44 11.7 °F 8.1 °F 30.28 in NE 9.0 mph 12.0 mph 85% 0.00 in 0.00 W/m2
21:49 11.8 °F 8.2 °F 30.28 in NE 8.0 mph 12.0 mph 85% 0.00 in 0.00 W/m2
21:54 11.8 °F 8.2 °F 30.28 in NE 10.0 mph 12.0 mph 85% 0.00 in 0.00 W/m2
21:59 11.9 °F 8.3 °F 30.29 in ENE 4.0 mph 13.0 mph 85% 0.00 in 0.00 W/m2
22:04 11.9 °F 8.3 °F 30.28 in ENE 13.0 mph 13.0 mph 85% 0.00 in 0.00 W/m2
22:09 11.9 °F 8.3 °F 30.29 in ENE 7.0 mph 13.0 mph 85% 0.00 in 0.00 W/m2
22:14 11.9 °F 8.3 °F 30.29 in East 9.0 mph 13.0 mph 85% 0.00 in 0.00 W/m2
22:19 11.6 °F 8.0 °F 30.29 in East 11.0 mph 15.0 mph 85% 0.00 in 0.00 W/m2
22:24 11.3 °F 7.4 °F 30.29 in NE 4.0 mph 15.0 mph 84% 0.00 in 0.00 W/m2
22:29 11.0 °F 7.1 °F 30.29 in ENE 8.0 mph 12.0 mph 84% 0.00 in 0.00 W/m2
22:34 10.7 °F 6.6 °F 30.30 in NE 12.0 mph 15.0 mph 83% 0.00 in 0.00 W/m2
22:39 10.5 °F 6.4 °F 30.30 in ENE 13.0 mph 15.0 mph 83% 0.00 in 0.00 W/m2
22:44 10.3 °F 6.2 °F 30.30 in ENE 12.0 mph 15.0 mph 83% 0.00 in 0.00 W/m2
22:49 10.0 °F 5.9 °F 30.30 in NE 8.0 mph 15.0 mph 83% 0.00 in 0.00 W/m2
22:54 9.7 °F 5.6 °F 30.30 in NE 12.0 mph 15.0 mph 83% 0.00 in 0.00 W/m2
22:59 9.4 °F 5.3 °F 30.30 in ENE 10.0 mph 15.0 mph 83% 0.00 in 0.00 W/m2
23:04 9.1 °F 5.0 °F 30.30 in ENE 13.0 mph 14.0 mph 83% 0.00 in 0.00 W/m2
23:09 8.7 °F 4.3 °F 30.30 in NE 10.0 mph 15.0 mph 82% 0.00 in 0.00 W/m2
23:14 8.1 °F 3.7 °F 30.31 in ENE 14.0 mph 16.0 mph 82% 0.00 in 0.00 W/m2
23:19 7.7 °F 3.4 °F 30.31 in ENE 11.0 mph 16.0 mph 82% 0.00 in 0.00 W/m2
23:24 7.6 °F 3.3 °F 30.31 in ENE 9.0 mph 16.0 mph 82% 0.00 in 0.00 W/m2
23:29 7.3 °F 3.0 °F 30.31 in ENE 13.0 mph 15.0 mph 82% 0.00 in 0.00 W/m2
23:34 7.0 °F 2.7 °F 30.31 in ENE 10.0 mph 15.0 mph 82% 0.00 in 0.00 W/m2
23:39 6.9 °F 2.6 °F 30.31 in ENE 13.0 mph 14.0 mph 82% 0.00 in 0.00 W/m2
23:44 6.8 °F 2.7 °F 30.31 in ENE 8.0 mph 16.0 mph 83% 0.00 in 0.00 W/m2
23:49 6.6 °F 2.5 °F 30.31 in ENE 8.0 mph 16.0 mph 83% 0.00 in 0.00 W/m2
23:54 6.4 °F 2.3 °F 30.31 in ENE 8.0 mph 15.0 mph 83% 0.00 in 0.00 W/m2
23:59 6.3 °F 2.2 °F 30.31 in ENE 8.0 mph 15.0 mph 83% 0.00 in 0.00 W/m2
Bismarck, North Dakota, USA
Compliments of Weather Underground - 4 mb